Rostov Na Donu — UGNT — position and weather

sailwx.info

Track history (hours):
 
Tides and Currents Weather Stations Pressure Air Temp Water Temp Dewpoint Dewpoint Depression Visibility Wind Speed Wind Dir Waves Ship Positions

Rostov Na Donu

Last reported at 2017-Dec-17 04:48 UTC. Time now 2017-Dec-18 09:08 UTC.
Position N 45°34' E 036°46'.

Length 139 m; draft 2.8 m.

Type: Cargo ship. MMSI: 273429570.

Date/timePositionNaut miles runAvg speedWind from/ knotsBaromVisibWave heightAir tempDewpointWater temp
2017-Dec-17 04:48N 45°34' E 036°46'2 7.9
2017-Dec-17 04:30N 45°32' E 036°45'4 7.8
2017-Dec-17 04:00N 45°28' E 036°43'4 8.0
2017-Dec-17 03:30N 45°24' E 036°41'4 7.8
2017-Dec-17 03:00N 45°21' E 036°38'4 8.4
2017-Dec-17 02:30N 45°19' E 036°32'4 7.4
2017-Dec-17 02:00N 45°16' E 036°29'14 7.7
2017-Dec-17 00:09N 45°02' E 036°30'3 7.7
2017-Dec-16 23:45N 44°59' E 036°31'6 7.8
2017-Dec-16 22:59N 44°53' E 036°31'11 7.0
2017-Dec-16 21:28N 44°44' E 036°24'  
2017-Dec-14 14:06N 40°57' E 028°59'0 4.9
2017-Dec-14 14:00N 40°57' E 028°59'3 5.4
2017-Dec-14 13:21N 40°54' E 028°57'2 4.9
2017-Dec-14 12:59N 40°52' E 028°57'2 3.0
2017-Dec-14 12:15N 40°50' E 028°57'0 1.3
2017-Dec-14 11:56N 40°49' E 028°57'0 0.6
2017-Dec-14 11:28N 40°49' E 028°57'1 0.2
2017-Dec-14 08:02N 40°50' E 028°58'0 1.1
2017-Dec-14 07:54N 40°49' E 028°58'1 1.1
2017-Dec-14 07:25N 40°49' E 028°57'1 1.2
2017-Dec-14 06:49N 40°48' E 028°57'2 2.2
2017-Dec-14 06:09N 40°49' E 028°56'0 1.2
2017-Dec-14 05:55N 40°49' E 028°55'1 1.3
2017-Dec-14 05:26N 40°48' E 028°55'1 1.2
2017-Dec-14 04:43N 40°48' E 028°54'1 3.0
2017-Dec-14 04:30N 40°48' E 028°54'  
Track history (hours):
 
Tides and Currents Weather Stations Pressure Air Temp Water Temp Dewpoint Dewpoint Depression Visibility Wind Speed Wind Dir Waves Ship Positions

Rostov Na Donu

Last reported at 2017-Dec-17 04:48 UTC. Time now 2017-Dec-18 09:08 UTC.
Position N 45°34' E 036°46'.

Length 139 m; draft 2.8 m.

Type: Cargo ship. MMSI: 273429570.

Date/timePositionNaut miles runAvg speedWind from/ knotsBaromVisibWave heightAir tempDewpointWater temp
2017-Dec-17 04:48N 45°34' E 036°46'2 7.9
2017-Dec-17 04:30N 45°32' E 036°45'4 7.8
2017-Dec-17 04:00N 45°28' E 036°43'4 8.0
2017-Dec-17 03:30N 45°24' E 036°41'4 7.8
2017-Dec-17 03:00N 45°21' E 036°38'4 8.4
2017-Dec-17 02:30N 45°19' E 036°32'4 7.4
2017-Dec-17 02:00N 45°16' E 036°29'14 7.7
2017-Dec-17 00:09N 45°02' E 036°30'3 7.7
2017-Dec-16 23:45N 44°59' E 036°31'6 7.8
2017-Dec-16 22:59N 44°53' E 036°31'11 7.0
2017-Dec-16 21:28N 44°44' E 036°24'  
2017-Dec-14 14:06N 40°57' E 028°59'0 4.9
2017-Dec-14 14:00N 40°57' E 028°59'3 5.4
2017-Dec-14 13:21N 40°54' E 028°57'2 4.9
2017-Dec-14 12:59N 40°52' E 028°57'2 3.0
2017-Dec-14 12:15N 40°50' E 028°57'0 1.3
2017-Dec-14 11:56N 40°49' E 028°57'0 0.6
2017-Dec-14 11:28N 40°49' E 028°57'1 0.2
2017-Dec-14 08:02N 40°50' E 028°58'0 1.1
2017-Dec-14 07:54N 40°49' E 028°58'1 1.1
2017-Dec-14 07:25N 40°49' E 028°57'1 1.2
2017-Dec-14 06:49N 40°48' E 028°57'2 2.2
2017-Dec-14 06:09N 40°49' E 028°56'0 1.2
2017-Dec-14 05:55N 40°49' E 028°55'1 1.3
2017-Dec-14 05:26N 40°48' E 028°55'1 1.2
2017-Dec-14 04:43N 40°48' E 028°54'1 3.0
2017-Dec-14 04:30N 40°48' E 028°54'  

Dump ship's entire track history